sensor_id;sensor_type;location;lat;lon;timestamp;temperature;humidity
73547;SHT30;61807;48.384;-4.386;2022-11-20T00:01:46;12.15;81.27
73547;SHT30;61807;48.384;-4.386;2022-11-20T00:04:12;12.20;81.10
73547;SHT30;61807;48.384;-4.386;2022-11-20T00:06:37;12.22;80.99
73547;SHT30;61807;48.384;-4.386;2022-11-20T00:09:03;12.26;81.05
73547;SHT30;61807;48.384;-4.386;2022-11-20T00:11:31;12.29;81.00
73547;SHT30;61807;48.384;-4.386;2022-11-20T00:13:59;12.31;81.37
73547;SHT30;61807;48.384;-4.386;2022-11-20T00:16:27;12.35;81.46
73547;SHT30;61807;48.384;-4.386;2022-11-20T00:18:53;12.32;81.40
73547;SHT30;61807;48.384;-4.386;2022-11-20T00:21:22;12.33;81.53
73547;SHT30;61807;48.384;-4.386;2022-11-20T00:23:48;12.35;81.58
73547;SHT30;61807;48.384;-4.386;2022-11-20T00:26:16;12.36;81.46
73547;SHT30;61807;48.384;-4.386;2022-11-20T00:28:43;12.41;81.88
73547;SHT30;61807;48.384;-4.386;2022-11-20T00:31:13;12.42;81.88
73547;SHT30;61807;48.384;-4.386;2022-11-20T00:33:40;12.43;82.15
73547;SHT30;61807;48.384;-4.386;2022-11-20T00:36:11;12.46;82.25
73547;SHT30;61807;48.384;-4.386;2022-11-20T00:38:37;12.52;82.40
73547;SHT30;61807;48.384;-4.386;2022-11-20T00:41:06;12.53;82.43
73547;SHT30;61807;48.384;-4.386;2022-11-20T00:43:32;12.56;82.48
73547;SHT30;61807;48.384;-4.386;2022-11-20T00:45:58;12.57;82.33
73547;SHT30;61807;48.384;-4.386;2022-11-20T00:48:24;12.60;82.56
73547;SHT30;61807;48.384;-4.386;2022-11-20T00:50:50;12.62;82.56
73547;SHT30;61807;48.384;-4.386;2022-11-20T00:53:15;12.64;83.23
73547;SHT30;61807;48.384;-4.386;2022-11-20T00:55:40;12.67;83.05
73547;SHT30;61807;48.384;-4.386;2022-11-20T00:58:06;12.73;83.03
73547;SHT30;61807;48.384;-4.386;2022-11-20T01:00:31;12.75;83.43
73547;SHT30;61807;48.384;-4.386;2022-11-20T01:02:57;12.76;83.17
73547;SHT30;61807;48.384;-4.386;2022-11-20T01:05:22;12.77;83.34
73547;SHT30;61807;48.384;-4.386;2022-11-20T01:07:47;12.83;83.64
73547;SHT30;61807;48.384;-4.386;2022-11-20T01:10:13;12.83;83.43
73547;SHT30;61807;48.384;-4.386;2022-11-20T01:12:38;12.87;83.36
73547;SHT30;61807;48.384;-4.386;2022-11-20T01:15:04;12.89;83.41
73547;SHT30;61807;48.384;-4.386;2022-11-20T01:17:31;12.94;83.26
73547;SHT30;61807;48.384;-4.386;2022-11-20T01:19:56;12.99;83.19
73547;SHT30;61807;48.384;-4.386;2022-11-20T01:22:21;13.00;83.18
73547;SHT30;61807;48.384;-4.386;2022-11-20T01:24:47;13.01;83.23
73547;SHT30;61807;48.384;-4.386;2022-11-20T01:27:12;13.04;83.38
73547;SHT30;61807;48.384;-4.386;2022-11-20T01:29:37;13.10;83.34
73547;SHT30;61807;48.384;-4.386;2022-11-20T01:32:03;13.12;83.33
73547;SHT30;61807;48.384;-4.386;2022-11-20T01:34:28;13.17;83.33
73547;SHT30;61807;48.384;-4.386;2022-11-20T01:36:54;13.21;83.25
73547;SHT30;61807;48.384;-4.386;2022-11-20T01:39:22;13.24;83.25
73547;SHT30;61807;48.384;-4.386;2022-11-20T01:41:49;13.31;83.21
73547;SHT30;61807;48.384;-4.386;2022-11-20T01:44:51;13.34;83.29
73547;SHT30;61807;48.384;-4.386;2022-11-20T01:47:38;13.35;83.32
73547;SHT30;61807;48.384;-4.386;2022-11-20T01:50:24;13.41;83.25
73547;SHT30;61807;48.384;-4.386;2022-11-20T01:52:56;13.42;83.08
73547;SHT30;61807;48.384;-4.386;2022-11-20T01:55:32;13.42;82.93
73547;SHT30;61807;48.384;-4.386;2022-11-20T01:58:00;13.41;82.90
73547;SHT30;61807;48.384;-4.386;2022-11-20T02:00:26;13.41;82.82
73547;SHT30;61807;48.384;-4.386;2022-11-20T02:02:57;13.39;82.71
73547;SHT30;61807;48.384;-4.386;2022-11-20T02:05:41;13.38;82.64
73547;SHT30;61807;48.384;-4.386;2022-11-20T02:08:08;13.34;82.45
73547;SHT30;61807;48.384;-4.386;2022-11-20T02:10:34;13.35;82.39
73547;SHT30;61807;48.384;-4.386;2022-11-20T02:13:00;13.31;82.37
73547;SHT30;61807;48.384;-4.386;2022-11-20T02:15:44;13.28;82.33
73547;SHT30;61807;48.384;-4.386;2022-11-20T02:18:11;13.24;82.31
73547;SHT30;61807;48.384;-4.386;2022-11-20T02:20:41;13.18;82.45
73547;SHT30;61807;48.384;-4.386;2022-11-20T02:23:12;13.12;82.50
73547;SHT30;61807;48.384;-4.386;2022-11-20T02:25:39;13.12;82.41
73547;SHT30;61807;48.384;-4.386;2022-11-20T02:28:06;13.10;82.35
73547;SHT30;61807;48.384;-4.386;2022-11-20T02:30:31;13.08;82.30
73547;SHT30;61807;48.384;-4.386;2022-11-20T02:32:58;13.08;82.22
73547;SHT30;61807;48.384;-4.386;2022-11-20T02:37:51;13.03;82.14
73547;SHT30;61807;48.384;-4.386;2022-11-20T02:40:18;12.96;82.13
73547;SHT30;61807;48.384;-4.386;2022-11-20T02:42:44;12.94;82.10
73547;SHT30;61807;48.384;-4.386;2022-11-20T02:45:09;12.94;82.01
73547;SHT30;61807;48.384;-4.386;2022-11-20T02:47:35;12.89;81.96
73547;SHT30;61807;48.384;-4.386;2022-11-20T02:50:00;12.87;81.94
73547;SHT30;61807;48.384;-4.386;2022-11-20T02:52:26;12.86;81.90
73547;SHT30;61807;48.384;-4.386;2022-11-20T02:54:52;12.83;81.81
73547;SHT30;61807;48.384;-4.386;2022-11-20T02:57:18;12.76;81.76
73547;SHT30;61807;48.384;-4.386;2022-11-20T02:59:43;12.70;81.79
73547;SHT30;61807;48.384;-4.386;2022-11-20T03:02:08;12.66;81.82
73547;SHT30;61807;48.384;-4.386;2022-11-20T03:04:34;12.62;81.84
73547;SHT30;61807;48.384;-4.386;2022-11-20T03:06:59;12.60;81.88
73547;SHT30;61807;48.384;-4.386;2022-11-20T03:09:25;12.60;81.77
73547;SHT30;61807;48.384;-4.386;2022-11-20T03:11:50;12.55;81.75
73547;SHT30;61807;48.384;-4.386;2022-11-20T03:14:15;12.53;81.69
73547;SHT30;61807;48.384;-4.386;2022-11-20T03:16:41;12.50;81.67
73547;SHT30;61807;48.384;-4.386;2022-11-20T03:19:06;12.49;81.55
73547;SHT30;61807;48.384;-4.386;2022-11-20T03:21:35;12.48;81.52
73547;SHT30;61807;48.384;-4.386;2022-11-20T03:24:01;12.45;81.52
73547;SHT30;61807;48.384;-4.386;2022-11-20T03:26:27;12.45;81.59
73547;SHT30;61807;48.384;-4.386;2022-11-20T03:28:55;12.42;81.59
73547;SHT30;61807;48.384;-4.386;2022-11-20T03:31:23;12.42;81.66
73547;SHT30;61807;48.384;-4.386;2022-11-20T03:33:50;12.46;81.66
73547;SHT30;61807;48.384;-4.386;2022-11-20T03:36:16;12.48;81.71
73547;SHT30;61807;48.384;-4.386;2022-11-20T03:38:42;12.50;81.72
73547;SHT30;61807;48.384;-4.386;2022-11-20T03:41:11;12.53;81.69
73547;SHT30;61807;48.384;-4.386;2022-11-20T03:43:37;12.55;81.67
73547;SHT30;61807;48.384;-4.386;2022-11-20T03:46:03;12.53;81.72
73547;SHT30;61807;48.384;-4.386;2022-11-20T03:48:29;12.57;81.70
73547;SHT30;61807;48.384;-4.386;2022-11-20T03:51:12;12.60;81.70
73547;SHT30;61807;48.384;-4.386;2022-11-20T03:53:40;12.57;81.65
73547;SHT30;61807;48.384;-4.386;2022-11-20T03:56:07;12.57;81.66
73547;SHT30;61807;48.384;-4.386;2022-11-20T03:58:34;12.57;81.65
73547;SHT30;61807;48.384;-4.386;2022-11-20T04:01:25;12.57;81.71
73547;SHT30;61807;48.384;-4.386;2022-11-20T04:03:55;12.60;81.72
73547;SHT30;61807;48.384;-4.386;2022-11-20T04:06:23;12.60;81.64
73547;SHT30;61807;48.384;-4.386;2022-11-20T04:08:49;12.59;81.67
73547;SHT30;61807;48.384;-4.386;2022-11-20T04:13:43;12.60;81.67
73547;SHT30;61807;48.384;-4.386;2022-11-20T04:16:10;12.60;81.55
73547;SHT30;61807;48.384;-4.386;2022-11-20T04:18:36;12.55;81.11
73547;SHT30;61807;48.384;-4.386;2022-11-20T04:21:02;12.55;80.70
73547;SHT30;61807;48.384;-4.386;2022-11-20T04:23:27;12.49;80.51
73547;SHT30;61807;48.384;-4.386;2022-11-20T04:25:53;12.45;80.08
73547;SHT30;61807;48.384;-4.386;2022-11-20T04:28:19;12.42;79.65
73547;SHT30;61807;48.384;-4.386;2022-11-20T04:30:44;12.36;79.55
73547;SHT30;61807;48.384;-4.386;2022-11-20T04:33:10;12.29;79.32
73547;SHT30;61807;48.384;-4.386;2022-11-20T04:35:36;12.25;79.26
73547;SHT30;61807;48.384;-4.386;2022-11-20T04:38:02;12.24;79.12
73547;SHT30;61807;48.384;-4.386;2022-11-20T04:40:28;12.18;78.81
73547;SHT30;61807;48.384;-4.386;2022-11-20T04:42:54;12.15;78.41
73547;SHT30;61807;48.384;-4.386;2022-11-20T04:45:19;12.11;78.20
73547;SHT30;61807;48.384;-4.386;2022-11-20T04:47:45;12.01;78.02
73547;SHT30;61807;48.384;-4.386;2022-11-20T04:50:10;11.93;78.00
73547;SHT30;61807;48.384;-4.386;2022-11-20T04:52:36;11.87;77.97
73547;SHT30;61807;48.384;-4.386;2022-11-20T04:55:02;11.88;77.95
73547;SHT30;61807;48.384;-4.386;2022-11-20T04:57:27;11.84;77.68
73547;SHT30;61807;48.384;-4.386;2022-11-20T04:59:52;11.81;77.67
73547;SHT30;61807;48.384;-4.386;2022-11-20T05:02:18;11.78;77.60
73547;SHT30;61807;48.384;-4.386;2022-11-20T05:04:43;11.74;77.65
73547;SHT30;61807;48.384;-4.386;2022-11-20T05:07:09;11.74;77.42
73547;SHT30;61807;48.384;-4.386;2022-11-20T05:09:34;11.70;77.47
73547;SHT30;61807;48.384;-4.386;2022-11-20T05:11:59;11.67;77.46
73547;SHT30;61807;48.384;-4.386;2022-11-20T05:14:25;11.67;77.37
73547;SHT30;61807;48.384;-4.386;2022-11-20T05:16:50;11.66;77.37
73547;SHT30;61807;48.384;-4.386;2022-11-20T05:19:15;11.62;77.22
73547;SHT30;61807;48.384;-4.386;2022-11-20T05:21:41;11.57;77.28
73547;SHT30;61807;48.384;-4.386;2022-11-20T05:24:06;11.57;77.28
73547;SHT30;61807;48.384;-4.386;2022-11-20T05:26:32;11.53;77.08
73547;SHT30;61807;48.384;-4.386;2022-11-20T05:28:57;11.52;77.34
73547;SHT30;61807;48.384;-4.386;2022-11-20T05:31:24;11.50;77.42
73547;SHT30;61807;48.384;-4.386;2022-11-20T05:33:50;11.49;77.48
73547;SHT30;61807;48.384;-4.386;2022-11-20T05:36:16;11.46;77.46
73547;SHT30;61807;48.384;-4.386;2022-11-20T05:38:42;11.47;77.44
73547;SHT30;61807;48.384;-4.386;2022-11-20T05:41:10;11.43;77.44
73547;SHT30;61807;48.384;-4.386;2022-11-20T05:43:37;11.44;77.49
73547;SHT30;61807;48.384;-4.386;2022-11-20T05:46:03;11.42;77.41
73547;SHT30;61807;48.384;-4.386;2022-11-20T05:48:29;11.44;77.34
73547;SHT30;61807;48.384;-4.386;2022-11-20T05:50:57;11.43;77.31
73547;SHT30;61807;48.384;-4.386;2022-11-20T05:53:23;11.42;77.32
73547;SHT30;61807;48.384;-4.386;2022-11-20T05:55:56;11.40;77.20
73547;SHT30;61807;48.384;-4.386;2022-11-20T05:58:22;11.42;77.22
73547;SHT30;61807;48.384;-4.386;2022-11-20T06:00:47;11.40;77.17
73547;SHT30;61807;48.384;-4.386;2022-11-20T06:03:12;11.37;77.21
73547;SHT30;61807;48.384;-4.386;2022-11-20T06:05:38;11.37;77.19
73547;SHT30;61807;48.384;-4.386;2022-11-20T06:08:03;11.36;77.15
73547;SHT30;61807;48.384;-4.386;2022-11-20T06:10:28;11.37;77.16
73547;SHT30;61807;48.384;-4.386;2022-11-20T06:12:57;11.37;77.09
73547;SHT30;61807;48.384;-4.386;2022-11-20T06:15:22;11.36;77.06
73547;SHT30;61807;48.384;-4.386;2022-11-20T06:17:52;11.37;77.08
73547;SHT30;61807;48.384;-4.386;2022-11-20T06:20:17;11.36;77.08
73547;SHT30;61807;48.384;-4.386;2022-11-20T06:22:43;11.32;77.16
73547;SHT30;61807;48.384;-4.386;2022-11-20T06:25:08;11.29;77.14
73547;SHT30;61807;48.384;-4.386;2022-11-20T06:27:33;11.27;77.20
73547;SHT30;61807;48.384;-4.386;2022-11-20T06:29:59;11.26;77.24
73547;SHT30;61807;48.384;-4.386;2022-11-20T06:32:24;11.20;77.40
73547;SHT30;61807;48.384;-4.386;2022-11-20T06:34:50;11.20;77.41
73547;SHT30;61807;48.384;-4.386;2022-11-20T06:37:15;11.16;77.47
73547;SHT30;61807;48.384;-4.386;2022-11-20T06:39:40;11.12;77.60
73547;SHT30;61807;48.384;-4.386;2022-11-20T06:42:06;11.12;77.80
73547;SHT30;61807;48.384;-4.386;2022-11-20T06:44:31;11.15;77.89
73547;SHT30;61807;48.384;-4.386;2022-11-20T06:46:56;11.19;77.84
73547;SHT30;61807;48.384;-4.386;2022-11-20T06:49:22;11.22;77.74
73547;SHT30;61807;48.384;-4.386;2022-11-20T06:51:47;11.27;77.65
73547;SHT30;61807;48.384;-4.386;2022-11-20T06:54:12;11.32;77.52
73547;SHT30;61807;48.384;-4.386;2022-11-20T06:56:38;11.34;77.56
73547;SHT30;61807;48.384;-4.386;2022-11-20T06:59:05;11.37;77.49
73547;SHT30;61807;48.384;-4.386;2022-11-20T07:01:31;11.40;77.51
73547;SHT30;61807;48.384;-4.386;2022-11-20T07:03:56;11.43;77.53
73547;SHT30;61807;48.384;-4.386;2022-11-20T07:06:21;11.39;77.49
73547;SHT30;61807;48.384;-4.386;2022-11-20T07:08:47;11.42;77.49
73547;SHT30;61807;48.384;-4.386;2022-11-20T07:11:12;11.40;77.37
73547;SHT30;61807;48.384;-4.386;2022-11-20T07:13:37;11.39;77.33
73547;SHT30;61807;48.384;-4.386;2022-11-20T07:16:06;11.37;77.25
73547;SHT30;61807;48.384;-4.386;2022-11-20T07:18:31;11.36;77.28
73547;SHT30;61807;48.384;-4.386;2022-11-20T07:21:01;11.39;77.23
73547;SHT30;61807;48.384;-4.386;2022-11-20T07:23:27;11.42;77.21
73547;SHT30;61807;48.384;-4.386;2022-11-20T07:25:52;11.43;77.23
73547;SHT30;61807;48.384;-4.386;2022-11-20T07:28:18;11.44;77.14
73547;SHT30;61807;48.384;-4.386;2022-11-20T07:30:49;11.49;77.11
73547;SHT30;61807;48.384;-4.386;2022-11-20T07:33:15;11.52;76.94
73547;SHT30;61807;48.384;-4.386;2022-11-20T07:35:40;11.53;76.84
73547;SHT30;61807;48.384;-4.386;2022-11-20T07:38:05;11.53;76.73
73547;SHT30;61807;48.384;-4.386;2022-11-20T07:40:31;11.59;76.82
73547;SHT30;61807;48.384;-4.386;2022-11-20T07:42:56;11.63;76.70
73547;SHT30;61807;48.384;-4.386;2022-11-20T07:45:23;11.67;76.66
73547;SHT30;61807;48.384;-4.386;2022-11-20T07:47:49;11.71;76.57
73547;SHT30;61807;48.384;-4.386;2022-11-20T07:50:15;11.75;76.56
73547;SHT30;61807;48.384;-4.386;2022-11-20T07:52:41;11.80;76.53
73547;SHT30;61807;48.384;-4.386;2022-11-20T07:55:07;11.88;76.33
73547;SHT30;61807;48.384;-4.386;2022-11-20T07:57:33;11.90;76.33
73547;SHT30;61807;48.384;-4.386;2022-11-20T07:59:58;12.01;76.31
73547;SHT30;61807;48.384;-4.386;2022-11-20T08:02:24;12.05;76.02
73547;SHT30;61807;48.384;-4.386;2022-11-20T08:04:49;12.11;75.97
73547;SHT30;61807;48.384;-4.386;2022-11-20T08:07:14;12.18;75.97
73547;SHT30;61807;48.384;-4.386;2022-11-20T08:09:40;12.22;75.86
73547;SHT30;61807;48.384;-4.386;2022-11-20T08:12:05;12.28;75.70
73547;SHT30;61807;48.384;-4.386;2022-11-20T08:14:50;12.31;75.79
73547;SHT30;61807;48.384;-4.386;2022-11-20T08:17:15;12.35;75.61
73547;SHT30;61807;48.384;-4.386;2022-11-20T08:19:40;12.36;75.36
73547;SHT30;61807;48.384;-4.386;2022-11-20T08:22:06;12.46;75.42
73547;SHT30;61807;48.384;-4.386;2022-11-20T08:24:31;12.53;75.29
73547;SHT30;61807;48.384;-4.386;2022-11-20T08:26:58;12.62;75.17
73547;SHT30;61807;48.384;-4.386;2022-11-20T08:29:24;12.72;75.21
73547;SHT30;61807;48.384;-4.386;2022-11-20T08:31:50;12.86;75.12
73547;SHT30;61807;48.384;-4.386;2022-11-20T08:34:16;12.96;74.88
73547;SHT30;61807;48.384;-4.386;2022-11-20T08:36:41;13.06;74.87
73547;SHT30;61807;48.384;-4.386;2022-11-20T08:39:06;13.17;74.87
73547;SHT30;61807;48.384;-4.386;2022-11-20T08:41:32;13.24;74.69
73547;SHT30;61807;48.384;-4.386;2022-11-20T08:44:00;13.28;74.52
73547;SHT30;61807;48.384;-4.386;2022-11-20T08:46:32;13.34;74.38
73547;SHT30;61807;48.384;-4.386;2022-11-20T08:49:02;13.41;74.12
73547;SHT30;61807;48.384;-4.386;2022-11-20T08:51:28;13.48;74.16
73547;SHT30;61807;48.384;-4.386;2022-11-20T08:53:53;13.55;74.06
73547;SHT30;61807;48.384;-4.386;2022-11-20T08:56:18;13.63;73.92
73547;SHT30;61807;48.384;-4.386;2022-11-20T08:58:44;13.68;73.75
73547;SHT30;61807;48.384;-4.386;2022-11-20T09:01:10;13.76;73.68
73547;SHT30;61807;48.384;-4.386;2022-11-20T09:03:35;13.79;73.53
73547;SHT30;61807;48.384;-4.386;2022-11-20T09:06:04;13.82;73.38
73547;SHT30;61807;48.384;-4.386;2022-11-20T09:08:30;13.85;73.18
73547;SHT30;61807;48.384;-4.386;2022-11-20T09:10:57;13.85;72.86
73547;SHT30;61807;48.384;-4.386;2022-11-20T09:13:23;13.89;72.93
73547;SHT30;61807;48.384;-4.386;2022-11-20T09:16:08;13.90;72.80
73547;SHT30;61807;48.384;-4.386;2022-11-20T09:18:35;13.93;73.00
73547;SHT30;61807;48.384;-4.386;2022-11-20T09:21:05;14.00;72.80
73547;SHT30;61807;48.384;-4.386;2022-11-20T09:23:33;14.06;72.66
73547;SHT30;61807;48.384;-4.386;2022-11-20T09:26:02;14.13;72.58
73547;SHT30;61807;48.384;-4.386;2022-11-20T09:28:28;14.19;72.43
73547;SHT30;61807;48.384;-4.386;2022-11-20T09:30:53;14.27;72.32
73547;SHT30;61807;48.384;-4.386;2022-11-20T09:33:18;14.36;72.46
73547;SHT30;61807;48.384;-4.386;2022-11-20T09:35:44;14.48;72.13
73547;SHT30;61807;48.384;-4.386;2022-11-20T09:38:11;14.68;72.18
73547;SHT30;61807;48.384;-4.386;2022-11-20T09:46:23;15.19;70.97
73547;SHT30;61807;48.384;-4.386;2022-11-20T09:49:14;15.16;70.86
73547;SHT30;61807;48.384;-4.386;2022-11-20T09:51:59;15.07;70.69
73547;SHT30;61807;48.384;-4.386;2022-11-20T09:54:37;15.12;71.05
73547;SHT30;61807;48.384;-4.386;2022-11-20T09:57:25;15.22;71.07
73547;SHT30;61807;48.384;-4.386;2022-11-20T10:00:00;15.32;71.09
73547;SHT30;61807;48.384;-4.386;2022-11-20T10:02:34;15.44;70.82
73547;SHT30;61807;48.384;-4.386;2022-11-20T10:05:09;15.58;70.22
73547;SHT30;61807;48.384;-4.386;2022-11-20T10:10:33;15.78;69.68
73547;SHT30;61807;48.384;-4.386;2022-11-20T10:13:27;15.88;69.72
73547;SHT30;61807;48.384;-4.386;2022-11-20T10:29:32;16.64;67.73
73547;SHT30;61807;48.384;-4.386;2022-11-20T10:32:11;16.51;67.77
73547;SHT30;61807;48.384;-4.386;2022-11-20T10:34:52;16.38;67.04
73547;SHT30;61807;48.384;-4.386;2022-11-20T10:37:25;16.26;67.97
73547;SHT30;61807;48.384;-4.386;2022-11-20T10:39:56;16.24;67.61
73547;SHT30;61807;48.384;-4.386;2022-11-20T10:42:37;16.12;67.81
73547;SHT30;61807;48.384;-4.386;2022-11-20T10:45:28;16.06;67.70
73547;SHT30;61807;48.384;-4.386;2022-11-20T10:48:10;15.95;67.84
73547;SHT30;61807;48.384;-4.386;2022-11-20T10:50:41;15.90;68.09
73547;SHT30;61807;48.384;-4.386;2022-11-20T11:01:18;15.74;67.83
73547;SHT30;61807;48.384;-4.386;2022-11-20T11:03:44;15.77;67.46
73547;SHT30;61807;48.384;-4.386;2022-11-20T11:08:46;15.94;67.57
73547;SHT30;61807;48.384;-4.386;2022-11-20T11:11:27;16.05;67.22
73547;SHT30;61807;48.384;-4.386;2022-11-20T11:14:07;16.09;66.89
73547;SHT30;61807;48.384;-4.386;2022-11-20T11:16:32;16.11;66.89
73547;SHT30;61807;48.384;-4.386;2022-11-20T11:19:06;16.06;66.17
73547;SHT30;61807;48.384;-4.386;2022-11-20T11:21:31;15.98;65.90
73547;SHT30;61807;48.384;-4.386;2022-11-20T11:24:02;15.94;66.07
73547;SHT30;61807;48.384;-4.386;2022-11-20T11:26:28;16.05;66.07
73547;SHT30;61807;48.384;-4.386;2022-11-20T11:29:03;16.32;65.68
73547;SHT30;61807;48.384;-4.386;2022-11-20T11:31:33;16.57;65.30
73547;SHT30;61807;48.384;-4.386;2022-11-20T11:34:12;16.67;64.53
73547;SHT30;61807;48.384;-4.386;2022-11-20T11:36:38;16.76;64.83
73547;SHT30;61807;48.384;-4.386;2022-11-20T11:39:06;16.74;63.73
73547;SHT30;61807;48.384;-4.386;2022-11-20T11:41:36;16.74;62.70
73547;SHT30;61807;48.384;-4.386;2022-11-20T11:47:03;16.90;63.12
73547;SHT30;61807;48.384;-4.386;2022-11-20T11:49:30;17.01;63.43
73547;SHT30;61807;48.384;-4.386;2022-11-20T11:54:43;17.34;61.69
73547;SHT30;61807;48.384;-4.386;2022-11-20T11:59:57;17.58;60.97
73547;SHT30;61807;48.384;-4.386;2022-11-20T12:07:47;17.92;60.48
73547;SHT30;61807;48.384;-4.386;2022-11-20T12:10:19;17.90;60.49
73547;SHT30;61807;48.384;-4.386;2022-11-20T12:12:50;17.85;60.10
73547;SHT30;61807;48.384;-4.386;2022-11-20T12:15:25;17.79;60.02
73547;SHT30;61807;48.384;-4.386;2022-11-20T12:17:51;17.61;60.38
73547;SHT30;61807;48.384;-4.386;2022-11-20T12:20:16;17.48;61.21
73547;SHT30;61807;48.384;-4.386;2022-11-20T12:22:45;17.32;61.02
73547;SHT30;61807;48.384;-4.386;2022-11-20T12:30:15;16.87;61.11
73547;SHT30;61807;48.384;-4.386;2022-11-20T12:32:56;16.91;60.74
73547;SHT30;61807;48.384;-4.386;2022-11-20T12:38:42;16.77;61.47
73547;SHT30;61807;48.384;-4.386;2022-11-20T12:46:55;16.22;61.98
73547;SHT30;61807;48.384;-4.386;2022-11-20T13:00:14;15.78;63.76
73547;SHT30;61807;48.384;-4.386;2022-11-20T13:08:34;15.29;64.73
73547;SHT30;61807;48.384;-4.386;2022-11-20T13:11:02;15.22;64.71
73547;SHT30;61807;48.384;-4.386;2022-11-20T13:13:45;15.13;64.97
73547;SHT30;61807;48.384;-4.386;2022-11-20T13:18:54;15.07;65.52
73547;SHT30;61807;48.384;-4.386;2022-11-20T13:29:42;15.05;66.03
73547;SHT30;61807;48.384;-4.386;2022-11-20T13:34:54;14.99;66.07
73547;SHT30;61807;48.384;-4.386;2022-11-20T13:37:30;14.99;66.35
73547;SHT30;61807;48.384;-4.386;2022-11-20T13:42:56;14.96;66.72
73547;SHT30;61807;48.384;-4.386;2022-11-20T13:47:49;14.88;66.59
73547;SHT30;61807;48.384;-4.386;2022-11-20T13:50:15;14.88;66.90
73547;SHT30;61807;48.384;-4.386;2022-11-20T13:52:50;14.85;67.09
73547;SHT30;61807;48.384;-4.386;2022-11-20T14:00:50;14.85;67.50
73547;SHT30;61807;48.384;-4.386;2022-11-20T14:03:20;14.82;67.53
73547;SHT30;61807;48.384;-4.386;2022-11-20T14:06:10;14.84;67.66
73547;SHT30;61807;48.384;-4.386;2022-11-20T14:08:41;14.84;67.73
73547;SHT30;61807;48.384;-4.386;2022-11-20T14:11:13;14.84;67.86
73547;SHT30;61807;48.384;-4.386;2022-11-20T14:13:39;14.84;67.96
73547;SHT30;61807;48.384;-4.386;2022-11-20T14:16:05;14.84;67.95
73547;SHT30;61807;48.384;-4.386;2022-11-20T14:18:30;14.81;67.69
73547;SHT30;61807;48.384;-4.386;2022-11-20T14:20:55;14.75;67.62
73547;SHT30;61807;48.384;-4.386;2022-11-20T14:23:27;14.75;67.60
73547;SHT30;61807;48.384;-4.386;2022-11-20T14:25:53;14.72;67.61
73547;SHT30;61807;48.384;-4.386;2022-11-20T14:28:27;14.68;67.81
73547;SHT30;61807;48.384;-4.386;2022-11-20T14:30:53;14.64;67.85
73547;SHT30;61807;48.384;-4.386;2022-11-20T14:33:20;14.63;67.92
73547;SHT30;61807;48.384;-4.386;2022-11-20T14:35:52;14.64;68.08
73547;SHT30;61807;48.384;-4.386;2022-11-20T14:38:21;14.64;68.03
73547;SHT30;61807;48.384;-4.386;2022-11-20T14:40:47;14.61;67.91
73547;SHT30;61807;48.384;-4.386;2022-11-20T14:43:27;14.55;68.06
73547;SHT30;61807;48.384;-4.386;2022-11-20T14:46:01;14.52;68.20
73547;SHT30;61807;48.384;-4.386;2022-11-20T14:48:35;14.51;68.26
73547;SHT30;61807;48.384;-4.386;2022-11-20T14:51:03;14.51;68.39
73547;SHT30;61807;48.384;-4.386;2022-11-20T14:53:28;14.47;68.45
73547;SHT30;61807;48.384;-4.386;2022-11-20T14:55:56;14.49;68.50
73547;SHT30;61807;48.384;-4.386;2022-11-20T14:58:24;14.48;68.67
73547;SHT30;61807;48.384;-4.386;2022-11-20T15:01:12;14.48;68.70
73547;SHT30;61807;48.384;-4.386;2022-11-20T15:03:39;14.48;68.69
73547;SHT30;61807;48.384;-4.386;2022-11-20T15:06:07;14.47;68.75
73547;SHT30;61807;48.384;-4.386;2022-11-20T15:08:34;14.44;69.05
73547;SHT30;61807;48.384;-4.386;2022-11-20T15:10:59;14.42;69.18
73547;SHT30;61807;48.384;-4.386;2022-11-20T15:13:26;14.42;69.35
73547;SHT30;61807;48.384;-4.386;2022-11-20T15:15:55;14.41;69.32
73547;SHT30;61807;48.384;-4.386;2022-11-20T15:18:24;14.41;69.29
73547;SHT30;61807;48.384;-4.386;2022-11-20T15:20:51;14.38;69.28
73547;SHT30;61807;48.384;-4.386;2022-11-20T15:23:18;14.36;69.47
73547;SHT30;61807;48.384;-4.386;2022-11-20T15:25:44;14.36;69.44
73547;SHT30;61807;48.384;-4.386;2022-11-20T15:28:30;14.34;69.49
73547;SHT30;61807;48.384;-4.386;2022-11-20T15:30:56;14.36;69.61
73547;SHT30;61807;48.384;-4.386;2022-11-20T15:33:21;14.30;69.67
73547;SHT30;61807;48.384;-4.386;2022-11-20T15:35:47;14.34;69.84
73547;SHT30;61807;48.384;-4.386;2022-11-20T15:38:12;14.31;69.86
73547;SHT30;61807;48.384;-4.386;2022-11-20T15:40:45;14.33;70.13
73547;SHT30;61807;48.384;-4.386;2022-11-20T15:43:11;14.31;70.10
73547;SHT30;61807;48.384;-4.386;2022-11-20T15:45:54;14.30;70.02
73547;SHT30;61807;48.384;-4.386;2022-11-20T15:48:26;14.28;70.17
73547;SHT30;61807;48.384;-4.386;2022-11-20T15:50:57;14.24;70.35
73547;SHT30;61807;48.384;-4.386;2022-11-20T15:53:23;14.20;70.48
73547;SHT30;61807;48.384;-4.386;2022-11-20T15:55:48;14.17;70.66
73547;SHT30;61807;48.384;-4.386;2022-11-20T15:58:14;14.13;70.68
73547;SHT30;61807;48.384;-4.386;2022-11-20T16:00:41;14.10;70.84
73547;SHT30;61807;48.384;-4.386;2022-11-20T16:03:10;14.07;70.91
73547;SHT30;61807;48.384;-4.386;2022-11-20T16:05:36;14.05;71.01
73547;SHT30;61807;48.384;-4.386;2022-11-20T16:08:01;14.03;71.05
73547;SHT30;61807;48.384;-4.386;2022-11-20T16:10:27;14.02;71.11
73547;SHT30;61807;48.384;-4.386;2022-11-20T16:12:52;14.02;71.22
73547;SHT30;61807;48.384;-4.386;2022-11-20T16:15:36;13.97;71.13
73547;SHT30;61807;48.384;-4.386;2022-11-20T16:18:13;13.95;71.17
73547;SHT30;61807;48.384;-4.386;2022-11-20T16:20:39;13.95;71.23
73547;SHT30;61807;48.384;-4.386;2022-11-20T16:23:05;13.91;71.34
73547;SHT30;61807;48.384;-4.386;2022-11-20T16:25:31;13.90;71.34
73547;SHT30;61807;48.384;-4.386;2022-11-20T16:27:56;13.90;71.42
73547;SHT30;61807;48.384;-4.386;2022-11-20T16:30:21;13.87;71.52
73547;SHT30;61807;48.384;-4.386;2022-11-20T16:32:47;13.86;71.60
73547;SHT30;61807;48.384;-4.386;2022-11-20T16:35:13;13.82;71.69
73547;SHT30;61807;48.384;-4.386;2022-11-20T16:37:39;13.80;71.72
73547;SHT30;61807;48.384;-4.386;2022-11-20T16:40:05;13.80;71.89
73547;SHT30;61807;48.384;-4.386;2022-11-20T16:42:34;13.80;71.91
73547;SHT30;61807;48.384;-4.386;2022-11-20T16:45:00;13.79;72.14
73547;SHT30;61807;48.384;-4.386;2022-11-20T16:47:26;13.73;72.10
73547;SHT30;61807;48.384;-4.386;2022-11-20T16:49:51;13.76;72.21
73547;SHT30;61807;48.384;-4.386;2022-11-20T16:52:16;13.73;72.22
73547;SHT30;61807;48.384;-4.386;2022-11-20T16:54:42;13.72;72.24
73547;SHT30;61807;48.384;-4.386;2022-11-20T16:57:07;13.72;72.32
73547;SHT30;61807;48.384;-4.386;2022-11-20T16:59:32;13.73;72.42
73547;SHT30;61807;48.384;-4.386;2022-11-20T17:01:58;13.76;72.35
73547;SHT30;61807;48.384;-4.386;2022-11-20T17:04:24;13.76;72.39
73547;SHT30;61807;48.384;-4.386;2022-11-20T17:06:49;13.78;72.37
73547;SHT30;61807;48.384;-4.386;2022-11-20T17:09:14;13.79;72.43